Friday, February 23, 2018, 6:40 PM GMT
Back to Local

CYSJ, Saint John, N. B.

Location: , , Canada Lat: 45.333
Local Time: 6:40 PM GMT (18:40 GMT) Lon: -65.883
Time Zone: GMT Elev: 337 ft

Show me the last for .
Show Coded

Time T Td Feel RH Dir Speed Gust Alt SLP Vis Weather Sky Remarks
2018-02-23 18:00 28 5 - 36 - Calm - 30.58 30.60 15 SCT160 OVC230 None
2018-02-23 17:00 27 3 - 35 - Calm - 30.62 30.64 15 FEW180 BKN220 Pressure falling rapidly
2018-02-23 16:00 27 5 18 38 330° 8 - 30.66 30.68 15 FEW120 BKN260 None
2018-02-23 15:00 25 5 19 41 30° 5 - 30.69 30.71 15 FEW120 SCT260 None
2018-02-23 14:00 23 5 16 45 360° 6 - 30.71 30.73 15 SCT260 None
2018-02-23 13:00 19 5 14 52 50° 3 - 30.72 30.74 15 CLR None
2018-02-23 12:00 14 9 8 78 190° 3 - 30.72 30.75 15 CLR None
2018-02-23 11:00 14 7 8 72 10° 3 - 30.70 30.73 15 CLR None
2018-02-23 10:00 14 5 3 66 360° 8 - 30.70 30.73 15 CLR None
2018-02-23 09:00 16 5 4 61 10° 9 - 30.69 30.72 15 CLR None
2018-02-23 08:00 18 5 4 57 360° 13 - 30.69 30.71 15 CLR None
2018-02-23 07:00 19 5 5 52 350° 16 - 30.67 30.70 15 CLR None
2018-02-23 06:00 19 5 4 52 350° 14 20 30.67 30.69 15 CLR None
2018-02-23 05:00 21 5 9 48 360° 13 - 30.64 30.67 15 FEW180 None
2018-02-23 04:00 21 7 11 53 360° 9 - 30.63 30.65 15 SCT180 None
2018-02-23 03:00 21 7 7 53 10° 12 17 30.62 30.64 15 SCT180 None
2018-02-23 02:00 23 7 10 49 350° 15 - 30.62 30.64 15 BKN170 None
2018-02-23 01:00 25 7 13 45 340° 13 - 30.61 30.63 15 BKN170 None
2018-02-23 00:00 25 7 10 45 330° 12 22 30.61 30.63 15 BKN170 None
2018-02-22 23:00 27 7 17 42 300° 9 - 30.60 30.63 15 BKN160 None
2018-02-22 22:00 27 9 17 45 320° 10 - 30.58 30.60 15 BKN170 None
2018-02-22 21:00 27 9 15 45 320° 14 - 30.56 30.58 15 OVC150 None
2018-02-22 20:00 28 9 20 42 320° 8 - 30.55 30.58 15 OVC150 None
2018-02-22 19:00 28 9 20 42 310° 8 - 30.56 30.58 15 BKN170 OVC270 None

Support USWX by starting your Amazon purchase here.